Time;durP1;ratioP1;P1;durP2;ratioP2;P2;SDS_P1;SDS_P2;PMS_P1;PMS_P2;Temp;Humidity;BMP_temperature;BMP_pressure;BME280_temperature;BME280_humidity;BME280_pressure;Samples;Min_cycle;Max_cycle;Signal;HPM_P1;HPM_P2
2022/06/06 00:01:53;;;;;;;3.95;1.00;;;25.90;59.50;;;;;;6244307;22;19996;-80
2022/06/06 00:04:21;;;;;;;1.13;0.80;;;25.90;60.00;;;;;;6245199;23;20008;-80
2022/06/06 00:06:47;;;;;;;2.40;1.10;;;25.70;59.40;;;;;;6243295;23;20004;-79
2022/06/06 00:09:15;;;;;;;3.20;1.15;;;25.60;59.70;;;;;;6245137;23;20059;-80
2022/06/06 00:11:42;;;;;;;3.47;0.93;;;25.60;60.10;;;;;;6245088;23;20004;-80
2022/06/06 00:14:09;;;;;;;4.20;1.23;;;25.40;60.50;;;;;;6244857;23;20005;-80
2022/06/06 00:16:35;;;;;;;4.07;1.10;;;25.30;61.10;;;;;;6243297;23;20008;-80
2022/06/06 00:19:05;;;;;;;2.38;1.10;;;25.20;61.10;;;;;;6244139;23;20095;-79
2022/06/06 00:21:31;;;;;;;3.75;1.27;;;25.10;61.50;;;;;;6244148;23;20003;-79
2022/06/06 00:23:59;;;;;;;3.25;1.30;;;25.00;61.80;;;;;;6243785;23;20000;-84
2022/06/06 00:26:27;;;;;;;2.17;1.05;;;25.00;62.10;;;;;;6243751;23;20027;-83
2022/06/06 00:28:53;;;;;;;2.03;0.93;;;24.90;61.90;;;;;;6244693;23;19996;-81
2022/06/06 00:36:48;;;;;;;3.00;1.52;;;24.60;62.80;;;;;;6243685;23;20015;-82
2022/06/06 00:39:16;;;;;;;3.95;1.35;;;24.50;63.20;;;;;;6217793;23;20552;-82
2022/06/06 00:41:45;;;;;;;4.32;1.42;;;24.50;63.40;;;;;;6243545;23;19996;-82
2022/06/06 00:44:17;;;;;;;3.58;1.33;;;24.50;64.30;;;;;;6245245;23;20076;-85
2022/06/06 00:46:51;;;;;;;3.42;1.50;;;24.40;64.40;;;;;;6244872;23;20083;-86
2022/06/06 00:49:29;;;;;;;4.22;1.17;;;24.30;64.70;;;;;;6245478;23;20000;-86
2022/06/06 00:51:56;;;;;;;3.40;1.63;;;24.30;64.30;;;;;;6245018;23;20330;-86
2022/06/06 00:54:23;;;;;;;2.60;1.35;;;24.10;65.10;;;;;;6245479;23;20000;-88
2022/06/06 00:57:05;;;;;;;2.22;1.40;;;24.20;64.60;;;;;;6218875;23;20012;-87
2022/06/06 00:59:35;;;;;;;2.83;1.65;;;24.30;65.10;;;;;;6244538;23;19996;-87
2022/06/06 01:02:01;;;;;;;2.28;1.20;;;24.20;65.20;;;;;;6245011;22;20006;-85
2022/06/06 01:04:29;;;;;;;4.05;1.70;;;24.20;65.00;;;;;;6244657;23;20335;-86
2022/06/06 01:06:56;;;;;;;5.50;1.60;;;24.30;64.60;;;;;;6218623;23;20018;-86
2022/06/06 01:09:24;;;;;;;5.63;1.60;;;24.30;65.20;;;;;;6218577;23;20014;-88
2022/06/06 01:12:04;;;;;;;4.57;1.90;;;24.20;65.40;;;;;;6246056;23;20425;-87
2022/06/06 01:14:35;;;;;;;3.40;1.70;;;24.00;65.70;;;;;;6247057;23;20004;-87
2022/06/06 01:17:07;;;;;;;2.30;1.17;;;23.90;66.60;;;;;;6246042;23;20004;-86
2022/06/06 01:19:50;;;;;;;3.28;1.33;;;23.80;67.00;;;;;;6245780;23;20000;-86
2022/06/06 01:22:47;;;;;;;3.83;1.77;;;23.70;67.10;;;;;;6246443;23;20002;-85
2022/06/06 01:25:16;;;;;;;2.08;1.27;;;23.80;66.90;;;;;;6204331;23;20008;-85
2022/06/06 01:27:47;;;;;;;3.08;1.40;;;23.80;66.50;;;;;;6218354;23;20008;-83
2022/06/06 01:30:18;;;;;;;1.73;1.30;;;24.00;66.00;;;;;;6245708;23;20028;-83
2022/06/06 01:32:49;;;;;;;3.92;1.42;;;24.00;66.30;;;;;;6219081;23;20011;-83
2022/06/06 01:35:27;;;;;;;1.90;1.40;;;24.00;66.50;;;;;;6245381;23;20004;-83
2022/06/06 01:37:53;;;;;;;2.67;1.42;;;24.10;66.10;;;;;;6245431;23;20008;-83
2022/06/06 01:40:20;;;;;;;4.32;2.10;;;24.10;66.50;;;;;;6246245;23;19996;-83
2022/06/06 01:42:48;;;;;;;6.68;2.20;;;24.00;66.90;;;;;;6218198;23;20027;-83
2022/06/06 01:45:23;;;;;;;1.58;1.40;;;23.70;67.70;;;;;;6245693;23;20407;-84
2022/06/06 01:48:01;;;;;;;5.25;2.13;;;23.80;67.60;;;;;;6218870;23;20008;-83
2022/06/06 01:50:29;;;;;;;4.18;1.65;;;23.70;67.90;;;;;;6246470;23;20050;-83
2022/06/06 01:53:05;;;;;;;5.10;2.20;;;23.30;69.30;;;;;;6245568;23;20335;-84
2022/06/06 01:55:33;;;;;;;4.55;1.77;;;23.20;69.70;;;;;;6245399;23;20319;-83
2022/06/06 01:58:02;;;;;;;9.85;3.00;;;23.40;69.50;;;;;;6245797;23;20039;-87
2022/06/06 02:00:32;;;;;;;7.43;1.90;;;22.90;70.80;;;;;;6246482;23;19996;-87
2022/06/06 02:02:58;;;;;;;3.78;1.90;;;22.90;71.30;;;;;;6245253;22;20020;-86
2022/06/06 02:05:25;;;;;;;3.13;1.52;;;22.90;71.10;;;;;;6245559;23;20004;-85
2022/06/06 02:07:51;;;;;;;3.08;1.73;;;23.10;70.60;;;;;;6245995;23;20026;-85
2022/06/06 02:10:18;;;;;;;4.57;1.95;;;23.10;71.50;;;;;;6246238;23;20011;-84
2022/06/06 02:12:45;;;;;;;3.90;2.10;;;22.90;71.40;;;;;;6245957;23;20510;-84
2022/06/06 02:15:14;;;;;;;1.98;1.40;;;23.00;71.00;;;;;;6246024;23;20054;-84
2022/06/06 02:17:40;;;;;;;4.18;2.45;;;23.10;71.10;;;;;;6245827;23;20000;-84
2022/06/06 02:20:07;;;;;;;3.40;1.80;;;22.90;71.80;;;;;;6246267;23;20383;-84
2022/06/06 02:22:32;;;;;;;5.47;2.00;;;23.00;71.40;;;;;;6246581;23;20063;-85
2022/06/06 02:24:58;;;;;;;4.18;2.17;;;23.00;71.70;;;;;;6246307;23;20062;-85
2022/06/06 02:27:25;;;;;;;5.68;2.08;;;23.10;71.40;;;;;;6246427;23;20004;-86
2022/06/06 02:29:51;;;;;;;6.75;2.60;;;23.00;71.80;;;;;;6245246;23;20008;-85
2022/06/06 02:32:16;;;;;;;2.47;1.60;;;23.00;71.80;;;;;;6245210;23;20768;-85
2022/06/06 02:34:42;;;;;;;7.13;2.17;;;23.00;71.50;;;;;;6245276;23;20299;-84
2022/06/06 02:37:08;;;;;;;3.15;2.35;;;22.90;72.10;;;;;;6245976;23;20000;-88
2022/06/06 02:39:34;;;;;;;5.18;2.10;;;22.90;72.30;;;;;;6246045;23;20399;-85
2022/06/06 02:41:59;;;;;;;3.60;1.88;;;22.90;72.30;;;;;;6246402;23;20007;-86
2022/06/06 02:44:25;;;;;;;4.70;2.10;;;23.00;72.10;;;;;;6246182;23;20132;-86
2022/06/06 02:46:51;;;;;;;3.25;1.98;;;23.10;71.70;;;;;;6246114;23;20418;-85
2022/06/06 02:49:17;;;;;;;3.63;1.98;;;23.20;71.80;;;;;;6245843;23;20004;-85
2022/06/06 02:51:43;;;;;;;5.55;1.65;;;23.10;71.40;;;;;;6245588;23;20027;-83
2022/06/06 02:54:09;;;;;;;8.00;2.10;;;23.10;71.40;;;;;;6244407;23;20000;-84
2022/06/06 02:56:35;;;;;;;2.20;1.60;;;23.00;71.80;;;;;;6245019;23;20019;-87
2022/06/06 02:59:05;;;;;;;3.50;2.22;;;23.10;71.50;;;;;;6244224;23;20057;-85
2022/06/06 03:01:31;;;;;;;7.13;2.35;;;23.00;71.70;;;;;;6243574;23;20000;-85
2022/06/06 03:03:58;;;;;;;3.10;2.13;;;22.80;72.60;;;;;;6244930;22;20070;-83
2022/06/06 03:06:36;;;;;;;4.82;2.90;;;22.90;72.50;;;;;;6244872;23;19996;-83
2022/06/06 03:09:10;;;;;;;3.70;2.80;;;22.70;72.70;;;;;;6245319;23;20000;-85
2022/06/06 03:12:10;;;;;;;3.38;2.10;;;22.60;73.40;;;;;;6244523;23;19996;-84
2022/06/06 03:14:44;;;;;;;3.63;1.87;;;22.70;73.00;;;;;;6245186;23;20087;-84
2022/06/06 03:20:46;;;;;;;9.90;6.05;;;22.70;73.40;;;;;;6245754;23;20492;-84
2022/06/06 03:23:36;;;;;;;6.43;4.22;;;22.20;75.10;;;;;;6245782;23;20007;-83
2022/06/06 03:26:14;;;;;;;6.50;3.80;;;22.10;75.90;;;;;;6245440;23;20011;-84
2022/06/06 03:28:43;;;;;;;10.98;5.63;;;22.20;75.60;;;;;;6245542;23;20012;-83
2022/06/06 03:31:14;;;;;;;9.65;5.63;;;22.20;75.70;;;;;;6245591;23;20000;-85
2022/06/06 03:33:54;;;;;;;6.43;3.83;;;22.10;75.80;;;;;;6245631;23;20004;-82
2022/06/06 03:36:49;;;;;;;5.93;3.75;;;22.20;76.00;;;;;;6217296;23;20051;-83
2022/06/06 03:39:18;;;;;;;3.15;2.70;;;22.30;75.60;;;;;;6244213;23;20078;-82
2022/06/06 03:42:30;;;;;;;11.23;5.97;;;22.50;74.70;;;;;;6244698;23;20007;-81
2022/06/06 03:45:25;;;;;;;6.35;4.70;;;22.50;75.00;;;;;;6121157;23;20377;-82
2022/06/06 03:48:12;;;;;;;8.02;6.07;;;22.50;75.40;;;;;;6245010;23;20011;-81
2022/06/06 03:51:00;;;;;;;8.60;5.50;;;22.30;75.50;;;;;;6243979;23;20004;-83
2022/06/06 03:53:45;;;;;;;7.72;4.97;;;22.20;76.10;;;;;;6245034;23;20084;-84
2022/06/06 03:56:20;;;;;;;8.23;5.03;;;22.40;75.60;;;;;;6244576;23;20011;-83
2022/06/06 03:58:47;;;;;;;6.07;4.75;;;22.50;74.90;;;;;;6245596;23;20000;-82
2022/06/06 04:01:14;;;;;;;5.32;3.60;;;22.50;75.10;;;;;;6243227;23;20000;-83
2022/06/06 04:03:43;;;;;;;10.98;4.63;;;22.40;74.90;;;;;;6243249;22;20036;-83
2022/06/06 04:06:09;;;;;;;7.15;3.95;;;22.50;75.20;;;;;;6244269;23;20007;-84
2022/06/06 04:08:35;;;;;;;5.68;3.30;;;22.60;74.80;;;;;;6244238;23;20035;-83
2022/06/06 04:11:25;;;;;;;4.43;3.30;;;22.50;74.90;;;;;;6244546;23;20046;-83
2022/06/06 04:14:27;;;;;;;8.75;4.75;;;22.70;74.20;;;;;;6242434;23;20004;-86
2022/06/06 04:17:08;;;;;;;11.68;5.95;;;22.60;73.80;;;;;;6244324;23;20007;-86
2022/06/06 04:20:12;;;;;;;6.82;4.57;;;22.50;74.00;;;;;;6244529;23;20000;-85
2022/06/06 04:22:50;;;;;;;5.72;3.20;;;22.40;74.30;;;;;;6116787;23;20008;-84
2022/06/06 04:25:40;;;;;;;3.58;2.92;;;22.50;74.10;;;;;;6240564;23;20338;-85
2022/06/06 04:28:14;;;;;;;10.05;4.38;;;22.70;73.60;;;;;;6243700;23;20004;-85
2022/06/06 04:30:46;;;;;;;4.22;3.47;;;22.60;73.00;;;;;;6244389;23;20015;-84
2022/06/06 04:33:15;;;;;;;2.92;2.33;;;22.70;73.10;;;;;;6243987;23;20016;-84
2022/06/06 04:36:03;;;;;;;5.97;2.20;;;22.80;72.90;;;;;;6244518;23;20511;-85
2022/06/06 04:38:37;;;;;;;3.78;2.45;;;22.90;73.00;;;;;;6244980;23;20004;-82
2022/06/06 04:41:28;;;;;;;4.60;2.60;;;23.00;72.80;;;;;;6244034;23;20382;-81
2022/06/06 04:44:26;;;;;;;5.03;2.13;;;23.10;72.00;;;;;;6241364;23;20004;-82
2022/06/06 04:47:10;;;;;;;3.47;2.20;;;23.20;71.80;;;;;;6215341;23;20058;-81
2022/06/06 04:49:37;;;;;;;6.63;3.53;;;23.30;71.20;;;;;;6245323;23;20004;-82
2022/06/06 04:52:04;;;;;;;5.32;2.83;;;23.20;70.10;;;;;;6246253;23;20075;-83
2022/06/06 04:54:32;;;;;;;3.72;2.47;;;23.00;70.70;;;;;;6244517;23;20000;-83
2022/06/06 04:57:01;;;;;;;2.20;1.92;;;23.10;71.20;;;;;;6218694;23;20004;-83
2022/06/06 04:59:28;;;;;;;4.03;1.90;;;23.20;71.00;;;;;;6218737;23;20079;-83
2022/06/06 05:01:57;;;;;;;7.45;2.67;;;23.20;70.80;;;;;;6244660;22;20000;-86
2022/06/06 05:04:26;;;;;;;3.08;2.53;;;23.30;69.80;;;;;;6244550;23;20008;-87
2022/06/06 05:07:07;;;;;;;6.60;2.88;;;23.10;70.20;;;;;;6246661;23;20370;-85
2022/06/06 05:09:33;;;;;;;5.32;2.92;;;23.20;70.50;;;;;;6246291;23;20000;-87
2022/06/06 05:12:23;;;;;;;2.53;1.83;;;23.30;70.60;;;;;;6246066;23;20004;-86
2022/06/06 05:15:07;;;;;;;;;;;23.30;70.40;;;;;;6246883;23;20011;-88
2022/06/06 05:17:41;;;;;;;3.60;2.10;;;23.40;70.30;;;;;;6247004;23;19987;-86
2022/06/06 05:20:40;;;;;;;2.83;1.90;;;23.50;70.20;;;;;;6218585;23;20011;-85
2022/06/06 05:23:38;;;;;;;5.25;2.00;;;23.60;70.50;;;;;;6219147;23;20532;-85
2022/06/06 05:26:13;;;;;;;3.10;1.60;;;23.70;70.50;;;;;;6229940;23;20000;-84
2022/06/06 05:29:06;;;;;;;7.07;3.75;;;23.60;69.50;;;;;;6246320;23;20315;-85
2022/06/06 05:31:50;;;;;;;5.47;2.45;;;23.40;69.80;;;;;;6219841;23;20020;-84
2022/06/06 05:34:39;;;;;;;3.78;2.45;;;23.40;70.20;;;;;;6219300;23;20378;-84
2022/06/06 05:37:21;;;;;;;2.75;1.70;;;23.40;69.90;;;;;;6245698;23;20000;-84
2022/06/06 05:40:07;;;;;;;1.83;1.45;;;23.50;70.10;;;;;;6219460;23;20011;-85
2022/06/06 05:42:48;;;;;;;2.78;1.60;;;23.60;70.30;;;;;;6244031;23;20000;-84
2022/06/06 05:45:22;;;;;;;3.25;2.08;;;23.60;69.10;;;;;;6245209;23;20426;-76
2022/06/06 05:48:02;;;;;;;4.30;1.95;;;23.60;68.90;;;;;;6245672;23;20047;-76
2022/06/06 05:50:39;;;;;;;3.78;2.00;;;23.70;68.60;;;;;;6245711;23;20000;-76
2022/06/06 05:53:32;;;;;;;2.33;1.58;;;23.60;68.00;;;;;;6245611;23;20004;-76
2022/06/06 05:56:04;;;;;;;4.38;1.90;;;23.70;68.70;;;;;;6245560;23;20038;-76
2022/06/06 05:59:02;;;;;;;3.20;1.73;;;23.80;67.60;;;;;;6219305;23;20427;-76
2022/06/06 06:01:53;;;;;;;2.08;1.15;;;23.80;67.80;;;;;;6245812;23;20004;-75
2022/06/06 06:04:24;;;;;;;5.57;1.60;;;23.90;68.10;;;;;;6245779;23;20008;-75
2022/06/06 06:06:59;;;;;;;2.67;1.40;;;24.00;67.90;;;;;;6218649;23;20004;-75
2022/06/06 06:09:47;;;;;;;1.48;0.93;;;24.10;67.80;;;;;;6245955;23;20000;-75
2022/06/06 06:12:33;;;;;;;2.53;1.42;;;24.20;67.90;;;;;;6245043;23;20054;-75
2022/06/06 06:15:18;;;;;;;3.08;1.58;;;24.30;66.80;;;;;;6245576;23;20004;-75
2022/06/06 06:17:48;;;;;;;1.80;0.98;;;24.00;67.10;;;;;;6219912;23;20007;-75
2022/06/06 06:20:18;;;;;;;3.75;1.23;;;24.10;67.50;;;;;;6245956;23;20461;-76
2022/06/06 06:22:50;;;;;;;2.70;1.20;;;24.10;66.30;;;;;;6245750;23;20050;-76
2022/06/06 06:25:19;;;;;;;3.58;1.27;;;24.10;66.60;;;;;;6245950;23;20430;-77
2022/06/06 06:27:46;;;;;;;2.22;0.95;;;24.20;66.10;;;;;;6246044;23;20008;-76
2022/06/06 06:30:13;;;;;;;3.72;1.27;;;24.30;66.00;;;;;;6218816;23;20008;-80
2022/06/06 06:33:04;;;;;;;6.38;0.80;;;24.40;65.10;;;;;;6230992;23;20013;-77
2022/06/06 06:35:41;;;;;;;6.22;1.35;;;24.50;65.70;;;;;;6239359;23;20004;-77
2022/06/06 06:38:19;;;;;;;1.65;0.80;;;24.60;65.10;;;;;;6244345;23;20000;-77
2022/06/06 06:40:56;;;;;;;3.72;1.30;;;24.70;64.80;;;;;;6245014;23;19996;-78
2022/06/06 06:43:31;;;;;;;2.33;0.88;;;24.70;62.90;;;;;;6245424;23;20423;-76
2022/06/06 06:46:03;;;;;;;2.17;0.70;;;24.80;63.40;;;;;;6245352;23;20004;-77
2022/06/06 06:48:35;;;;;;;2.90;0.50;;;24.90;62.80;;;;;;6245411;23;20016;-78
2022/06/06 06:51:11;;;;;;;2.22;0.80;;;24.90;62.10;;;;;;6209290;23;20008;-77
2022/06/06 06:54:17;;;;;;;1.80;0.60;;;25.00;61.10;;;;;;6242423;23;20011;-77
2022/06/06 07:10:47;;;;;;;1.95;0.77;;;25.40;61.40;;;;;;6243540;23;20019;-79
2022/06/06 07:13:27;;;;;;;2.70;0.70;;;25.40;61.60;;;;;;6244251;23;20000;-78
2022/06/06 07:16:22;;;;;;;2.58;0.82;;;25.40;61.80;;;;;;6245148;23;20082;-80
2022/06/06 07:18:58;;;;;;;3.70;1.20;;;25.50;61.30;;;;;;6246188;23;20000;-79
2022/06/06 07:21:25;;;;;;;1.73;1.00;;;25.60;61.10;;;;;;6245370;23;20005;-79
2022/06/06 07:23:54;;;;;;;3.25;0.98;;;25.60;61.40;;;;;;6244355;23;20008;-80
2022/06/06 07:26:21;;;;;;;1.80;0.77;;;25.70;61.10;;;;;;6244994;23;20032;-80
2022/06/06 07:28:47;;;;;;;3.65;0.70;;;25.70;60.30;;;;;;6217763;23;20355;-79
2022/06/06 07:31:33;;;;;;;1.55;0.60;;;25.70;60.40;;;;;;6244663;23;20071;-80
2022/06/06 07:34:04;;;;;;;4.85;1.02;;;25.80;60.70;;;;;;6183289;23;20342;-81
2022/06/06 07:36:30;;;;;;;2.42;0.98;;;25.80;59.70;;;;;;6244866;23;20030;-80
2022/06/06 07:39:06;;;;;;;2.17;0.80;;;25.90;60.50;;;;;;6243407;23;20072;-81
2022/06/06 07:42:15;;;;;;;1.17;0.60;;;25.90;59.50;;;;;;6244857;23;20032;-80
2022/06/06 07:44:41;;;;;;;1.53;0.87;;;26.00;60.20;;;;;;6189949;23;20381;-80
2022/06/06 07:47:49;;;;;;;1.55;0.57;;;26.00;59.40;;;;;;6244578;23;20286;-80
2022/06/06 07:50:21;;;;;;;1.85;0.90;;;26.10;59.60;;;;;;6243310;23;19996;-80
2022/06/06 07:52:47;;;;;;;1.55;1.00;;;26.20;59.80;;;;;;6216404;23;20451;-79
2022/06/06 07:55:28;;;;;;;1.88;1.00;;;26.20;59.80;;;;;;6244791;23;20005;-80
2022/06/06 07:58:12;;;;;;;2.38;1.05;;;26.30;60.00;;;;;;6218846;23;20008;-80
2022/06/06 08:00:39;;;;;;;2.88;1.10;;;26.30;60.00;;;;;;6244745;23;20072;-80
2022/06/06 08:03:07;;;;;;;1.33;0.80;;;26.40;59.60;;;;;;6244932;23;20442;-79
2022/06/06 08:06:08;;;;;;;1.88;0.90;;;26.40;59.90;;;;;;6245620;22;20012;-78
2022/06/06 08:08:42;;;;;;;1.75;1.00;;;26.50;60.20;;;;;;6218594;23;20000;-78
2022/06/06 08:11:26;;;;;;;1.88;0.60;;;26.60;59.30;;;;;;6245229;23;20031;-78
2022/06/06 08:13:54;;;;;;;0.95;0.80;;;26.60;58.10;;;;;;6245269;23;20004;-78
2022/06/06 08:16:54;;;;;;;1.60;0.90;;;26.70;59.10;;;;;;6219013;23;20374;-80
2022/06/06 08:19:58;;;;;;;1.70;0.70;;;26.80;58.50;;;;;;6247538;23;20050;-79
2022/06/06 08:22:25;;;;;;;3.97;0.98;;;26.90;56.50;;;;;;6246538;23;20004;-80
2022/06/06 08:24:54;;;;;;;3.15;0.93;;;26.90;57.90;;;;;;6220301;23;20442;-79
2022/06/06 08:27:20;;;;;;;1.98;0.80;;;26.90;57.90;;;;;;6221089;23;20091;-79
2022/06/06 08:29:47;;;;;;;1.75;0.68;;;26.90;57.70;;;;;;6247404;23;20496;-79
2022/06/06 08:32:14;;;;;;;0.63;0.60;;;27.00;57.90;;;;;;6247582;23;20004;-80
2022/06/06 08:34:41;;;;;;;3.22;0.90;;;27.10;58.00;;;;;;6220316;23;20384;-79
2022/06/06 08:37:38;;;;;;;4.05;0.70;;;27.10;57.00;;;;;;6247320;23;20511;-78
2022/06/06 08:40:33;;;;;;;4.43;1.05;;;27.20;57.10;;;;;;6240874;23;20073;-78
2022/06/06 08:43:13;;;;;;;0.80;0.47;;;27.30;55.10;;;;;;6218851;23;20011;-77
2022/06/06 08:46:12;;;;;;;4.13;0.60;;;27.40;55.00;;;;;;6242499;23;20015;-76
2022/06/06 08:49:10;;;;;;;6.70;0.60;;;27.40;55.20;;;;;;6197786;23;20401;-78
2022/06/06 08:51:50;;;;;;;1.25;0.70;;;27.50;55.10;;;;;;6218843;23;20004;-80
2022/06/06 08:54:57;;;;;;;1.88;0.60;;;27.50;54.70;;;;;;6245053;23;20001;-79
2022/06/06 08:57:49;;;;;;;2.10;0.82;;;27.60;55.60;;;;;;6246228;23;20415;-77
2022/06/06 09:00:47;;;;;;;1.15;0.70;;;27.60;55.30;;;;;;6246479;23;20488;-77
2022/06/06 09:03:47;;;;;;;5.70;1.10;;;27.70;55.10;;;;;;6197160;23;20357;-81
2022/06/06 09:06:36;;;;;;;2.15;0.77;;;27.80;56.00;;;;;;6219742;23;20330;-78
2022/06/06 09:09:23;;;;;;;3.22;0.85;;;27.90;56.20;;;;;;6245986;23;20004;-77
2022/06/06 09:11:52;;;;;;;2.65;0.70;;;28.00;56.60;;;;;;6246593;23;20031;-78
2022/06/06 09:14:36;;;;;;;1.20;0.73;;;28.00;56.40;;;;;;6218786;23;20083;-78
2022/06/06 09:17:31;;;;;;;3.13;0.82;;;28.10;55.90;;;;;;6246008;23;20001;-77
2022/06/06 09:20:17;;;;;;;3.25;0.80;;;28.20;55.60;;;;;;6218989;23;20010;-78
2022/06/06 09:22:52;;;;;;;1.58;0.70;;;28.30;56.00;;;;;;6246776;23;19996;-79
2022/06/06 09:25:36;;;;;;;1.75;0.90;;;28.40;55.90;;;;;;6246497;23;20494;-79
2022/06/06 09:28:22;;;;;;;1.40;0.80;;;28.50;56.20;;;;;;6247520;23;20047;-80
2022/06/06 09:31:06;;;;;;;1.50;0.90;;;28.50;55.50;;;;;;6246417;23;20071;-79
2022/06/06 09:33:51;;;;;;;2.70;0.93;;;28.60;55.00;;;;;;6219573;23;20465;-80
2022/06/06 09:36:54;;;;;;;3.90;0.73;;;28.60;53.90;;;;;;6245822;23;20004;-79
2022/06/06 09:39:47;;;;;;;2.38;0.82;;;28.80;55.20;;;;;;6246704;23;20007;-80
2022/06/06 09:42:46;;;;;;;2.40;1.00;;;28.90;55.40;;;;;;6219833;23;20330;-79
2022/06/06 09:45:37;;;;;;;3.97;0.80;;;29.00;54.80;;;;;;6246572;23;20004;-79
2022/06/06 09:48:39;;;;;;;3.47;0.63;;;29.10;54.70;;;;;;6246355;23;20084;-79
2022/06/06 09:51:07;;;;;;;1.42;0.90;;;29.20;53.60;;;;;;6245383;23;20054;-78
2022/06/06 09:59:01;;;;;;;2.08;1.00;;;29.20;53.40;;;;;;6244506;23;20004;-80
2022/06/06 10:00:11;;;;;;;2.53;1.20;;;29.40;52.50;;;;;;6245212;23;20335;-81
2022/06/06 10:02:56;;;;;;;2.95;0.70;;;29.50;51.80;;;;;;6216431;23;20008;-81
2022/06/06 10:05:31;;;;;;;3.28;0.77;;;29.60;49.70;;;;;;6231579;23;20074;-79
2022/06/06 10:08:11;;;;;;;1.48;0.70;;;29.60;51.40;;;;;;6238355;23;20078;-78
2022/06/06 10:10:58;;;;;;;4.65;1.10;;;29.70;52.40;;;;;;6244134;22;20075;-77
2022/06/06 10:13:34;;;;;;;1.10;0.80;;;29.80;52.60;;;;;;6243712;23;20008;-78
2022/06/06 10:16:37;;;;;;;2.10;0.90;;;29.90;52.70;;;;;;6244465;22;20079;-78
2022/06/06 10:19:27;;;;;;;2.65;0.90;;;30.00;51.80;;;;;;6244362;23;20000;-77
2022/06/06 10:22:08;;;;;;;;;;;30.10;49.50;;;;;;6242940;23;20058;-79
2022/06/06 10:25:09;;;;;;;2.92;0.70;;;30.20;51.10;;;;;;6242134;23;19910;-78
2022/06/06 10:27:57;;;;;;;1.45;0.80;;;30.20;50.80;;;;;;6243433;22;20000;-77
2022/06/06 10:30:32;;;;;;;2.28;0.90;;;30.40;51.40;;;;;;6242195;23;20012;-80
2022/06/06 10:33:16;;;;;;;2.15;1.05;;;30.60;51.40;;;;;;6244682;23;20028;-80
2022/06/06 10:36:12;;;;;;;1.17;0.75;;;30.60;49.30;;;;;;6243215;23;20004;-81
2022/06/06 10:38:50;;;;;;;1.50;1.00;;;30.70;50.20;;;;;;6244576;22;20000;-78
2022/06/06 10:41:46;;;;;;;2.10;0.98;;;30.80;50.40;;;;;;6242530;23;20085;-78
2022/06/06 10:44:33;;;;;;;1.92;0.80;;;30.90;50.30;;;;;;6241959;23;20449;-78
2022/06/06 10:47:05;;;;;;;1.45;0.80;;;31.00;49.70;;;;;;6244465;22;20057;-80
2022/06/06 10:49:37;;;;;;;1.80;0.70;;;31.10;48.00;;;;;;6244011;23;20063;-80
2022/06/06 10:52:21;;;;;;;1.73;0.80;;;31.20;48.70;;;;;;6243568;23;20422;-81
2022/06/06 10:55:08;;;;;;;1.63;1.05;;;31.20;48.20;;;;;;6244592;23;20000;-77
2022/06/06 10:58:06;;;;;;;2.00;1.20;;;31.40;49.20;;;;;;6244174;22;20453;-78
2022/06/06 11:00:46;;;;;;;1.98;0.90;;;31.50;49.40;;;;;;6224249;22;20008;-77
2022/06/06 11:03:32;;;;;;;3.25;0.88;;;31.60;49.30;;;;;;6243387;23;20004;-77
2022/06/06 11:06:28;;;;;;;2.65;1.00;;;31.70;49.70;;;;;;6197373;22;20062;-77
2022/06/06 11:09:03;;;;;;;3.58;1.10;;;31.90;49.10;;;;;;6245538;23;20004;-77
2022/06/06 11:12:06;;;;;;;2.20;0.90;;;32.00;49.20;;;;;;6244764;23;19996;-76
2022/06/06 11:14:36;;;;;;;0.75;0.50;;;32.20;47.10;;;;;;6162521;22;20012;-77
2022/06/06 11:17:11;;;;;;;;;;;32.30;48.00;;;;;;6244843;22;20007;-76
2022/06/06 11:19:58;;;;;;;2.70;0.90;;;32.30;47.00;;;;;;6245027;23;19899;-76
2022/06/06 11:22:32;;;;;;;1.67;0.88;;;32.40;47.30;;;;;;6243595;23;20075;-77
2022/06/06 11:25:27;;;;;;;2.38;1.20;;;32.50;47.20;;;;;;6244355;22;20085;-81
2022/06/06 11:28:19;;;;;;;2.78;0.90;;;32.80;47.50;;;;;;6239496;23;20442;-81
2022/06/06 11:30:59;;;;;;;1.30;0.80;;;33.20;45.90;;;;;;6231922;22;20057;-81
2022/06/06 11:34:04;;;;;;;6.25;1.10;;;33.60;46.10;;;;;;6243638;23;20004;-78
2022/06/06 11:37:01;;;;;;;3.75;0.90;;;34.10;43.20;;;;;;6237880;23;20801;-78
2022/06/06 11:39:35;;;;;;;3.83;1.13;;;34.60;44.50;;;;;;6205776;22;20496;-79
2022/06/06 11:42:20;;;;;;;2.45;0.90;;;35.00;42.80;;;;;;6242548;23;20000;-79
2022/06/06 11:45:20;;;;;;;3.58;1.02;;;35.20;42.00;;;;;;6242125;23;20004;-79
2022/06/06 11:48:01;;;;;;;2.33;1.17;;;35.40;41.10;;;;;;6195473;22;20054;-78
2022/06/06 11:50:42;;;;;;;3.38;0.98;;;35.30;41.80;;;;;;6242721;23;20004;-78
2022/06/06 11:53:21;;;;;;;2.00;0.75;;;35.20;41.40;;;;;;6242349;22;20050;-79
2022/06/06 11:56:32;;;;;;;1.02;0.73;;;34.70;40.90;;;;;;6243669;23;20449;-78
2022/06/06 11:59:35;;;;;;;3.13;0.90;;;34.70;42.20;;;;;;6242797;22;19996;-78
2022/06/06 12:02:16;;;;;;;3.53;0.90;;;35.00;42.20;;;;;;6243429;23;20004;-77
2022/06/06 12:05:19;;;;;;;3.65;0.98;;;35.30;42.20;;;;;;6239183;22;20086;-79
2022/06/06 12:08:40;;;;;;;0.80;0.80;;;35.70;41.20;;;;;;6240519;23;20079;-78
2022/06/06 12:11:29;;;;;;;3.40;1.10;;;36.10;40.20;;;;;;6212734;23;20016;-79
2022/06/06 12:14:22;;;;;;;3.05;0.63;;;36.20;39.80;;;;;;6240229;23;20008;-78
2022/06/06 12:17:16;;;;;;;1.75;0.70;;;36.20;39.70;;;;;;6193723;23;20016;-77
2022/06/06 12:20:14;;;;;;;3.90;0.57;;;36.20;37.40;;;;;;6211936;23;20027;-78
2022/06/06 12:23:00;;;;;;;1.05;0.50;;;36.40;37.70;;;;;;6240175;23;20071;-76
2022/06/06 12:25:46;;;;;;;3.95;0.68;;;36.40;38.20;;;;;;6239838;23;20007;-77
2022/06/06 12:28:36;;;;;;;0.90;0.50;;;36.40;36.20;;;;;;6243368;23;20407;-77
2022/06/06 12:31:14;;;;;;;0.57;0.57;;;36.30;37.70;;;;;;6240540;23;20007;-77
2022/06/06 12:33:53;;;;;;;2.55;0.77;;;36.10;37.70;;;;;;6241218;23;20000;-77
2022/06/06 12:36:25;;;;;;;0.93;0.60;;;35.90;38.60;;;;;;6237267;23;20091;-78
2022/06/06 12:39:01;;;;;;;1.33;0.65;;;35.80;39.00;;;;;;6243541;23;19997;-77
2022/06/06 12:41:54;;;;;;;1.25;0.55;;;35.80;39.10;;;;;;6243652;23;20330;-78
2022/06/06 12:44:49;;;;;;;1.00;0.60;;;35.70;38.70;;;;;;6216572;23;20000;-77
2022/06/06 12:47:39;;;;;;;4.63;0.60;;;35.70;37.70;;;;;;6242357;23;20494;-76
2022/06/06 12:50:20;;;;;;;2.00;0.80;;;35.90;39.00;;;;;;6242398;23;20046;-77
2022/06/06 12:53:25;;;;;;;0.93;0.50;;;36.10;38.70;;;;;;6242682;23;20010;-77
2022/06/06 12:56:37;;;;;;;4.07;0.80;;;36.20;38.80;;;;;;6220671;23;20004;-77
2022/06/06 12:59:32;;;;;;;2.42;0.55;;;36.10;38.30;;;;;;6240478;23;20004;-81
2022/06/06 13:02:36;;;;;;;3.63;0.60;;;36.10;38.60;;;;;;6236848;23;20060;-80
2022/06/06 13:05:12;;;;;;;1.67;0.65;;;36.30;38.20;;;;;;6216075;22;20035;-80
2022/06/06 13:07:48;;;;;;;2.38;0.93;;;36.40;38.40;;;;;;6244669;23;20008;-81
2022/06/06 13:10:30;;;;;;;1.00;0.63;;;36.60;37.70;;;;;;6244422;23;20008;-81
2022/06/06 13:13:07;;;;;;;3.95;0.82;;;36.80;37.40;;;;;;6217295;23;20008;-81
2022/06/06 13:15:45;;;;;;;2.55;0.75;;;37.00;37.40;;;;;;6244916;23;20000;-80
2022/06/06 13:18:22;;;;;;;1.30;0.60;;;37.10;37.40;;;;;;6218533;23;20339;-80
2022/06/06 13:20:57;;;;;;;1.45;0.88;;;37.30;37.10;;;;;;6244551;23;20007;-79
2022/06/06 13:23:37;;;;;;;1.65;0.60;;;37.30;36.10;;;;;;6217974;23;20063;-79
2022/06/06 13:26:15;;;;;;;1.33;0.50;;;37.30;34.60;;;;;;6244822;23;20004;-80
2022/06/06 13:28:50;;;;;;;2.33;0.70;;;37.30;35.90;;;;;;6217916;23;20082;-77
2022/06/06 13:31:21;;;;;;;1.95;0.70;;;37.30;35.10;;;;;;6245004;23;20011;-80
2022/06/06 13:33:59;;;;;;;3.03;0.63;;;37.20;34.60;;;;;;6243338;23;20008;-80
2022/06/06 13:36:47;;;;;;;1.95;0.65;;;37.10;34.70;;;;;;6244942;23;20676;-80
2022/06/06 13:39:49;;;;;;;2.80;0.60;;;37.00;35.30;;;;;;6244836;23;20006;-82
2022/06/06 13:43:03;;;;;;;2.35;0.68;;;37.10;34.50;;;;;;6243603;23;20430;-81
2022/06/06 13:45:49;;;;;;;1.30;0.75;;;37.10;34.80;;;;;;6197465;23;20043;-81
2022/06/06 13:48:33;;;;;;;1.77;0.70;;;37.10;34.80;;;;;;6244226;23;20031;-81
2022/06/06 13:51:17;;;;;;;2.25;0.63;;;37.00;34.80;;;;;;6245183;23;20008;-82
2022/06/06 13:53:49;;;;;;;1.00;0.75;;;36.80;34.80;;;;;;6217785;23;20008;-82
2022/06/06 13:56:48;;;;;;;3.90;0.70;;;36.60;34.90;;;;;;6217950;23;20077;-82
2022/06/06 13:59:33;;;;;;;;;;;36.40;35.30;;;;;;6245463;23;20000;-76
2022/06/06 14:02:17;;;;;;;1.27;0.50;;;36.20;36.50;;;;;;6216224;23;19910;-77
2022/06/06 14:05:13;;;;;;;2.58;0.80;;;36.00;36.70;;;;;;6242189;22;20808;-76
2022/06/06 14:07:38;;;;;;;2.92;1.00;;;35.90;37.00;;;;;;6214703;23;20333;-76
2022/06/06 14:10:11;;;;;;;1.65;0.90;;;35.80;37.70;;;;;;6236296;23;20007;-81
2022/06/06 14:13:05;;;;;;;1.35;0.88;;;35.70;37.40;;;;;;6211520;23;20051;-81
2022/06/06 14:15:43;;;;;;;2.67;1.08;;;35.50;37.50;;;;;;6235878;23;20039;-77
2022/06/06 14:18:13;;;;;;;2.20;0.70;;;35.50;37.40;;;;;;6235811;23;20068;-77
2022/06/06 14:20:49;;;;;;;1.48;0.60;;;35.30;37.90;;;;;;6242766;23;20004;-77